Mura Tz17521 — 138107 — position and weather

sailwx.info

Track history (hours):
 
Tides and Currents Weather Stations Pressure Air Temp Water Temp Dewpoint Dewpoint Depression Visibility Wind Speed Wind Dir Waves Ship Positions

Mura Tz17521

Last reported at 2017-Dec-11 17:00 UTC. Time now 2017-Dec-13 20:22 UTC.
Position N 47°27' E 019°04'.

Length 168 m; draft 1 m.

Type: Cargo ship. MMSI: 238812840.

Date/timePositionNaut miles runAvg speedWind from/ knotsBaromVisibWave heightAir tempDewpointWater temp
2017-Dec-11 17:00N 47°27' E 019°04'0 0.0
2017-Dec-11 16:30N 47°27' E 019°04'0 0.0
2017-Dec-11 16:00N 47°27' E 019°04'0 0.0
2017-Dec-11 15:30N 47°27' E 019°04'0 0.0
2017-Dec-11 15:00N 47°27' E 019°04'0 0.0
2017-Dec-11 14:30N 47°27' E 019°04'0 0.0
2017-Dec-11 14:00N 47°27' E 019°04'0 0.0
2017-Dec-11 13:30N 47°27' E 019°04'0 0.0
2017-Dec-11 13:00N 47°27' E 019°04'0 0.0
2017-Dec-11 12:30N 47°27' E 019°04'0 0.0
2017-Dec-11 12:00N 47°27' E 019°04'0 0.0
2017-Dec-11 11:28N 47°27' E 019°04'0 0.0
2017-Dec-11 10:59N 47°27' E 019°04'0 0.0
2017-Dec-11 10:30N 47°27' E 019°04'0 0.0
2017-Dec-11 10:00N 47°27' E 019°04'0 0.0
2017-Dec-11 09:30N 47°27' E 019°04'0 0.0
2017-Dec-11 09:00N 47°27' E 019°04'0 0.0
2017-Dec-11 08:30N 47°27' E 019°04'0 0.0
2017-Dec-11 08:00N 47°27' E 019°04'0 0.0
2017-Dec-11 07:30N 47°27' E 019°04'0 0.0
2017-Dec-11 07:00N 47°27' E 019°04'0 0.0
2017-Dec-11 06:30N 47°27' E 019°04'0 0.0
2017-Dec-11 05:59N 47°27' E 019°04'0 0.0
2017-Dec-11 05:30N 47°27' E 019°04'0 0.0
2017-Dec-11 05:00N 47°27' E 019°04'0 0.0
2017-Dec-11 04:30N 47°27' E 019°04'0 0.0
2017-Dec-11 04:00N 47°27' E 019°04'0 0.0
2017-Dec-11 03:30N 47°27' E 019°04'0 0.0
2017-Dec-11 03:00N 47°27' E 019°04'0 0.0
2017-Dec-11 02:30N 47°27' E 019°04'0 0.0
2017-Dec-11 02:00N 47°27' E 019°04'0 0.0
2017-Dec-11 01:30N 47°27' E 019°04'0 0.0
2017-Dec-11 01:00N 47°27' E 019°04'0 0.0
2017-Dec-11 00:30N 47°27' E 019°04'0 0.0
2017-Dec-11 00:00N 47°27' E 019°04'0 0.0
2017-Dec-10 23:30N 47°27' E 019°04'0 0.0
2017-Dec-10 23:00N 47°27' E 019°04'0 0.0
2017-Dec-10 22:30N 47°27' E 019°04'0 0.0
2017-Dec-10 22:00N 47°27' E 019°04'0 0.0
2017-Dec-10 21:30N 47°27' E 019°04'0 0.0
2017-Dec-10 20:59N 47°27' E 019°04'0 0.0
2017-Dec-10 20:30N 47°27' E 019°04'0 0.0
2017-Dec-10 20:00N 47°27' E 019°04'0 0.0
2017-Dec-10 19:30N 47°27' E 019°04'0 0.0
2017-Dec-10 19:00N 47°27' E 019°04'0 0.0
2017-Dec-10 18:30N 47°27' E 019°04'0 0.0
2017-Dec-10 18:00N 47°27' E 019°04'0 0.0
2017-Dec-10 17:30N 47°27' E 019°04'0 0.0
2017-Dec-10 17:00N 47°27' E 019°04'0 0.4
2017-Dec-10 16:30N 47°27' E 019°04'2 4.0
2017-Dec-10 16:00N 47°29' E 019°04'4 8.5
2017-Dec-10 15:30N 47°33' E 019°04'5 9.1
2017-Dec-10 14:56N 47°38' E 019°06'58 2.3
2017-Dec-09 14:02N 47°47' E 017°41'011.7
2017-Dec-09 14:00N 47°47' E 017°40'510.3
2017-Dec-09 13:30N 47°51' E 017°35'1 1.3
2017-Dec-09 13:00N 47°51' E 017°34'0 0.0
2017-Dec-09 12:30N 47°51' E 017°34'0 0.0
2017-Dec-09 12:00N 47°51' E 017°34'0 0.0
2017-Dec-09 11:30N 47°51' E 017°34'0 0.0
2017-Dec-09 11:00N 47°51' E 017°34'0 0.0
2017-Dec-09 10:30N 47°51' E 017°34'0 0.0
2017-Dec-09 10:00N 47°51' E 017°34'0 0.0
2017-Dec-09 09:30N 47°51' E 017°34'0 0.0
2017-Dec-09 09:00N 47°51' E 017°34'0 0.0
2017-Dec-09 08:30N 47°51' E 017°34'0 0.0
2017-Dec-09 08:00N 47°51' E 017°34'0 0.0
2017-Dec-09 07:30N 47°51' E 017°34'0 0.0
2017-Dec-09 07:00N 47°51' E 017°34'0 0.0
2017-Dec-09 06:31N 47°51' E 017°34'0 0.0
2017-Dec-09 06:00N 47°51' E 017°34'0 0.0
2017-Dec-09 05:31N 47°51' E 017°34'0 0.0
2017-Dec-09 05:00N 47°51' E 017°34'0 0.0
2017-Dec-09 04:30N 47°51' E 017°34'0 0.0
2017-Dec-09 04:00N 47°51' E 017°34'0 0.0
2017-Dec-09 03:30N 47°51' E 017°34'0 0.0
2017-Dec-09 03:00N 47°51' E 017°34'0 0.0
2017-Dec-09 02:30N 47°51' E 017°34'0 0.0
2017-Dec-09 02:00N 47°51' E 017°34'0 0.0
2017-Dec-09 01:30N 47°51' E 017°34'0 0.0
2017-Dec-09 01:00N 47°51' E 017°34'0 0.0
2017-Dec-09 00:30N 47°51' E 017°34'0 0.0
2017-Dec-09 00:00N 47°51' E 017°34'0 0.0
2017-Dec-08 23:30N 47°51' E 017°34'0 0.0
2017-Dec-08 23:00N 47°51' E 017°34'0 0.0
2017-Dec-08 22:31N 47°51' E 017°34'0 0.5
2017-Dec-08 22:00N 47°51' E 017°34'2 3.8
2017-Dec-08 21:30N 47°53' E 017°32'2 4.8
2017-Dec-08 21:00N 47°55' E 017°30'4 8.7
2017-Dec-08 20:30N 47°58' E 017°25'4 8.2
2017-Dec-08 20:00N 47°60' E 017°20'4 7.8
2017-Dec-08 19:31N 48°02' E 017°15'4 8.7
2017-Dec-08 19:01N 48°04' E 017°10'4 8.5
2017-Dec-08 18:30N 48°08' E 017°08'5 9.9
2017-Dec-08 18:00N 48°09' E 017°00'5 9.1
2017-Dec-08 17:30N 48°08' E 016°54'1710.5
2017-Dec-08 15:56N 48°10' E 016°29'0 0.8
2017-Dec-08 15:29N 48°11' E 016°29'  
2017-Dec-03 14:32N 48°11' E 016°28'0 5.9
2017-Dec-03 14:31N 48°11' E 016°28'1 1.4
2017-Dec-03 13:37N 48°10' E 016°29'12 2.0
2017-Dec-03 07:19N 48°07' E 016°47'1 2.5
2017-Dec-03 06:51N 48°07' E 016°49'1 2.2
2017-Dec-03 06:24N 48°07' E 016°50'2 2.5
2017-Dec-03 05:46N 48°08' E 016°53'1 2.2
2017-Dec-03 05:31N 48°08' E 016°53'1 2.4
2017-Dec-03 05:00N 48°09' E 016°55'1 2.2
2017-Dec-03 04:31N 48°09' E 016°56'1 2.5
2017-Dec-03 04:01N 48°10' E 016°57'1 1.8
2017-Dec-03 03:26N 48°10' E 016°59'1 2.6
2017-Dec-03 03:01N 48°10' E 016°60'1 2.4
2017-Dec-03 02:30N 48°09' E 017°01'1 2.3
2017-Dec-03 02:00N 48°09' E 017°03'1 2.8
2017-Dec-03 01:31N 48°08' E 017°05'1 2.9
2017-Dec-03 01:01N 48°08' E 017°07'1 2.7
2017-Dec-03 00:31N 48°07' E 017°09'2 3.5
2017-Dec-03 00:01N 48°06' E 017°09'2 3.2
2017-Dec-02 23:31N 48°04' E 017°10'1 2.3
2017-Dec-02 23:00N 48°03' E 017°11'0 0.0
2017-Dec-02 22:31N 48°03' E 017°11'0 0.0
2017-Dec-02 22:01N 48°03' E 017°11'0 0.0
2017-Dec-02 21:31N 48°03' E 017°11'0 0.0
2017-Dec-02 21:01N 48°03' E 017°11'0 0.0
2017-Dec-02 20:30N 48°03' E 017°11'0 0.0
2017-Dec-02 20:01N 48°03' E 017°11'0 0.0
2017-Dec-02 19:30N 48°03' E 017°11'0 0.0
2017-Dec-02 19:01N 48°03' E 017°11'0 0.0
2017-Dec-02 18:30N 48°03' E 017°11'0 0.0
2017-Dec-02 18:00N 48°03' E 017°11'0 0.0
2017-Dec-02 17:31N 48°03' E 017°11'0 0.0
2017-Dec-02 17:01N 48°03' E 017°11'0 0.0
2017-Dec-02 16:31N 48°03' E 017°11'0 0.0
2017-Dec-02 16:00N 48°03' E 017°11'0 0.7
2017-Dec-02 15:31N 48°03' E 017°11'3 5.3
2017-Dec-02 15:01N 48°02' E 017°15'3 5.7
2017-Dec-02 14:31N 48°00' E 017°18'3 6.1
2017-Dec-02 14:01N 47°59' E 017°22'3 5.9
2017-Dec-02 13:30N 47°57' E 017°26'3 5.9
2017-Dec-02 13:01N 47°55' E 017°29'3 6.2
2017-Dec-02 12:30N 47°53' E 017°32'1 0.4
2017-Dec-02 11:14N 47°53' E 017°33'1 4.0
2017-Dec-02 11:01N 47°52' E 017°33'3 5.3
2017-Dec-02 10:24N 47°49' E 017°36'2 4.2
2017-Dec-02 10:00N 47°48' E 017°38'2 4.2
2017-Dec-02 09:30N 47°47' E 017°40'  
Track history (hours):
 
Tides and Currents Weather Stations Pressure Air Temp Water Temp Dewpoint Dewpoint Depression Visibility Wind Speed Wind Dir Waves Ship Positions

Mura Tz17521

Last reported at 2017-Dec-11 17:00 UTC. Time now 2017-Dec-13 20:22 UTC.
Position N 47°27' E 019°04'.

Length 168 m; draft 1 m.

Type: Cargo ship. MMSI: 238812840.

Date/timePositionNaut miles runAvg speedWind from/ knotsBaromVisibWave heightAir tempDewpointWater temp
2017-Dec-11 17:00N 47°27' E 019°04'0 0.0
2017-Dec-11 16:30N 47°27' E 019°04'0 0.0
2017-Dec-11 16:00N 47°27' E 019°04'0 0.0
2017-Dec-11 15:30N 47°27' E 019°04'0 0.0
2017-Dec-11 15:00N 47°27' E 019°04'0 0.0
2017-Dec-11 14:30N 47°27' E 019°04'0 0.0
2017-Dec-11 14:00N 47°27' E 019°04'0 0.0
2017-Dec-11 13:30N 47°27' E 019°04'0 0.0
2017-Dec-11 13:00N 47°27' E 019°04'0 0.0
2017-Dec-11 12:30N 47°27' E 019°04'0 0.0
2017-Dec-11 12:00N 47°27' E 019°04'0 0.0
2017-Dec-11 11:28N 47°27' E 019°04'0 0.0
2017-Dec-11 10:59N 47°27' E 019°04'0 0.0
2017-Dec-11 10:30N 47°27' E 019°04'0 0.0
2017-Dec-11 10:00N 47°27' E 019°04'0 0.0
2017-Dec-11 09:30N 47°27' E 019°04'0 0.0
2017-Dec-11 09:00N 47°27' E 019°04'0 0.0
2017-Dec-11 08:30N 47°27' E 019°04'0 0.0
2017-Dec-11 08:00N 47°27' E 019°04'0 0.0
2017-Dec-11 07:30N 47°27' E 019°04'0 0.0
2017-Dec-11 07:00N 47°27' E 019°04'0 0.0
2017-Dec-11 06:30N 47°27' E 019°04'0 0.0
2017-Dec-11 05:59N 47°27' E 019°04'0 0.0
2017-Dec-11 05:30N 47°27' E 019°04'0 0.0
2017-Dec-11 05:00N 47°27' E 019°04'0 0.0
2017-Dec-11 04:30N 47°27' E 019°04'0 0.0
2017-Dec-11 04:00N 47°27' E 019°04'0 0.0
2017-Dec-11 03:30N 47°27' E 019°04'0 0.0
2017-Dec-11 03:00N 47°27' E 019°04'0 0.0
2017-Dec-11 02:30N 47°27' E 019°04'0 0.0
2017-Dec-11 02:00N 47°27' E 019°04'0 0.0
2017-Dec-11 01:30N 47°27' E 019°04'0 0.0
2017-Dec-11 01:00N 47°27' E 019°04'0 0.0
2017-Dec-11 00:30N 47°27' E 019°04'0 0.0
2017-Dec-11 00:00N 47°27' E 019°04'0 0.0
2017-Dec-10 23:30N 47°27' E 019°04'0 0.0
2017-Dec-10 23:00N 47°27' E 019°04'0 0.0
2017-Dec-10 22:30N 47°27' E 019°04'0 0.0
2017-Dec-10 22:00N 47°27' E 019°04'0 0.0
2017-Dec-10 21:30N 47°27' E 019°04'0 0.0
2017-Dec-10 20:59N 47°27' E 019°04'0 0.0
2017-Dec-10 20:30N 47°27' E 019°04'0 0.0
2017-Dec-10 20:00N 47°27' E 019°04'0 0.0
2017-Dec-10 19:30N 47°27' E 019°04'0 0.0
2017-Dec-10 19:00N 47°27' E 019°04'0 0.0
2017-Dec-10 18:30N 47°27' E 019°04'0 0.0
2017-Dec-10 18:00N 47°27' E 019°04'0 0.0
2017-Dec-10 17:30N 47°27' E 019°04'0 0.0
2017-Dec-10 17:00N 47°27' E 019°04'0 0.4
2017-Dec-10 16:30N 47°27' E 019°04'2 4.0
2017-Dec-10 16:00N 47°29' E 019°04'4 8.5
2017-Dec-10 15:30N 47°33' E 019°04'5 9.1
2017-Dec-10 14:56N 47°38' E 019°06'58 2.3
2017-Dec-09 14:02N 47°47' E 017°41'011.7
2017-Dec-09 14:00N 47°47' E 017°40'510.3
2017-Dec-09 13:30N 47°51' E 017°35'1 1.3
2017-Dec-09 13:00N 47°51' E 017°34'0 0.0
2017-Dec-09 12:30N 47°51' E 017°34'0 0.0
2017-Dec-09 12:00N 47°51' E 017°34'0 0.0
2017-Dec-09 11:30N 47°51' E 017°34'0 0.0
2017-Dec-09 11:00N 47°51' E 017°34'0 0.0
2017-Dec-09 10:30N 47°51' E 017°34'0 0.0
2017-Dec-09 10:00N 47°51' E 017°34'0 0.0
2017-Dec-09 09:30N 47°51' E 017°34'0 0.0
2017-Dec-09 09:00N 47°51' E 017°34'0 0.0
2017-Dec-09 08:30N 47°51' E 017°34'0 0.0
2017-Dec-09 08:00N 47°51' E 017°34'0 0.0
2017-Dec-09 07:30N 47°51' E 017°34'0 0.0
2017-Dec-09 07:00N 47°51' E 017°34'0 0.0
2017-Dec-09 06:31N 47°51' E 017°34'0 0.0
2017-Dec-09 06:00N 47°51' E 017°34'0 0.0
2017-Dec-09 05:31N 47°51' E 017°34'0 0.0
2017-Dec-09 05:00N 47°51' E 017°34'0 0.0
2017-Dec-09 04:30N 47°51' E 017°34'0 0.0
2017-Dec-09 04:00N 47°51' E 017°34'0 0.0
2017-Dec-09 03:30N 47°51' E 017°34'0 0.0
2017-Dec-09 03:00N 47°51' E 017°34'0 0.0
2017-Dec-09 02:30N 47°51' E 017°34'0 0.0
2017-Dec-09 02:00N 47°51' E 017°34'0 0.0
2017-Dec-09 01:30N 47°51' E 017°34'0 0.0
2017-Dec-09 01:00N 47°51' E 017°34'0 0.0
2017-Dec-09 00:30N 47°51' E 017°34'0 0.0
2017-Dec-09 00:00N 47°51' E 017°34'0 0.0
2017-Dec-08 23:30N 47°51' E 017°34'0 0.0
2017-Dec-08 23:00N 47°51' E 017°34'0 0.0
2017-Dec-08 22:31N 47°51' E 017°34'0 0.5
2017-Dec-08 22:00N 47°51' E 017°34'2 3.8
2017-Dec-08 21:30N 47°53' E 017°32'2 4.8
2017-Dec-08 21:00N 47°55' E 017°30'4 8.7
2017-Dec-08 20:30N 47°58' E 017°25'4 8.2
2017-Dec-08 20:00N 47°60' E 017°20'4 7.8
2017-Dec-08 19:31N 48°02' E 017°15'4 8.7
2017-Dec-08 19:01N 48°04' E 017°10'4 8.5
2017-Dec-08 18:30N 48°08' E 017°08'5 9.9
2017-Dec-08 18:00N 48°09' E 017°00'5 9.1
2017-Dec-08 17:30N 48°08' E 016°54'1710.5
2017-Dec-08 15:56N 48°10' E 016°29'0 0.8
2017-Dec-08 15:29N 48°11' E 016°29'  
2017-Dec-03 14:32N 48°11' E 016°28'0 5.9
2017-Dec-03 14:31N 48°11' E 016°28'1 1.4
2017-Dec-03 13:37N 48°10' E 016°29'12 2.0
2017-Dec-03 07:19N 48°07' E 016°47'1 2.5
2017-Dec-03 06:51N 48°07' E 016°49'1 2.2
2017-Dec-03 06:24N 48°07' E 016°50'2 2.5
2017-Dec-03 05:46N 48°08' E 016°53'1 2.2
2017-Dec-03 05:31N 48°08' E 016°53'1 2.4
2017-Dec-03 05:00N 48°09' E 016°55'1 2.2
2017-Dec-03 04:31N 48°09' E 016°56'1 2.5
2017-Dec-03 04:01N 48°10' E 016°57'1 1.8
2017-Dec-03 03:26N 48°10' E 016°59'1 2.6
2017-Dec-03 03:01N 48°10' E 016°60'1 2.4
2017-Dec-03 02:30N 48°09' E 017°01'1 2.3
2017-Dec-03 02:00N 48°09' E 017°03'1 2.8
2017-Dec-03 01:31N 48°08' E 017°05'1 2.9
2017-Dec-03 01:01N 48°08' E 017°07'1 2.7
2017-Dec-03 00:31N 48°07' E 017°09'2 3.5
2017-Dec-03 00:01N 48°06' E 017°09'2 3.2
2017-Dec-02 23:31N 48°04' E 017°10'1 2.3
2017-Dec-02 23:00N 48°03' E 017°11'0 0.0
2017-Dec-02 22:31N 48°03' E 017°11'0 0.0
2017-Dec-02 22:01N 48°03' E 017°11'0 0.0
2017-Dec-02 21:31N 48°03' E 017°11'0 0.0
2017-Dec-02 21:01N 48°03' E 017°11'0 0.0
2017-Dec-02 20:30N 48°03' E 017°11'0 0.0
2017-Dec-02 20:01N 48°03' E 017°11'0 0.0
2017-Dec-02 19:30N 48°03' E 017°11'0 0.0
2017-Dec-02 19:01N 48°03' E 017°11'0 0.0
2017-Dec-02 18:30N 48°03' E 017°11'0 0.0
2017-Dec-02 18:00N 48°03' E 017°11'0 0.0
2017-Dec-02 17:31N 48°03' E 017°11'0 0.0
2017-Dec-02 17:01N 48°03' E 017°11'0 0.0
2017-Dec-02 16:31N 48°03' E 017°11'0 0.0
2017-Dec-02 16:00N 48°03' E 017°11'0 0.7
2017-Dec-02 15:31N 48°03' E 017°11'3 5.3
2017-Dec-02 15:01N 48°02' E 017°15'3 5.7
2017-Dec-02 14:31N 48°00' E 017°18'3 6.1
2017-Dec-02 14:01N 47°59' E 017°22'3 5.9
2017-Dec-02 13:30N 47°57' E 017°26'3 5.9
2017-Dec-02 13:01N 47°55' E 017°29'3 6.2
2017-Dec-02 12:30N 47°53' E 017°32'1 0.4
2017-Dec-02 11:14N 47°53' E 017°33'1 4.0
2017-Dec-02 11:01N 47°52' E 017°33'3 5.3
2017-Dec-02 10:24N 47°49' E 017°36'2 4.2
2017-Dec-02 10:00N 47°48' E 017°38'2 4.2
2017-Dec-02 09:30N 47°47' E 017°40'  

Dump ship's entire track history